sensor_id;sensor_type;location;lat;lon;timestamp;temperature;humidity
5344;DHT22;2694;48.950;8.970;2022-07-21T00:02:00;21.60;99.90
5344;DHT22;2694;48.950;8.970;2022-07-21T00:04:27;21.60;99.90
5344;DHT22;2694;48.950;8.970;2022-07-21T00:09:21;21.30;99.90
5344;DHT22;2694;48.950;8.970;2022-07-21T00:14:16;21.40;99.90
5344;DHT22;2694;48.950;8.970;2022-07-21T00:16:43;21.50;99.90
5344;DHT22;2694;48.950;8.970;2022-07-21T00:19:11;21.50;99.90
5344;DHT22;2694;48.950;8.970;2022-07-21T00:21:38;21.40;99.90
5344;DHT22;2694;48.950;8.970;2022-07-21T00:24:05;21.30;99.90
5344;DHT22;2694;48.950;8.970;2022-07-21T00:26:32;21.20;99.90
5344;DHT22;2694;48.950;8.970;2022-07-21T00:28:59;21.10;99.90
5344;DHT22;2694;48.950;8.970;2022-07-21T00:31:27;21.20;99.90
5344;DHT22;2694;48.950;8.970;2022-07-21T00:33:54;21.10;99.90
5344;DHT22;2694;48.950;8.970;2022-07-21T00:38:48;21.00;99.90
5344;DHT22;2694;48.950;8.970;2022-07-21T00:41:15;21.10;99.90
5344;DHT22;2694;48.950;8.970;2022-07-21T00:43:42;21.30;99.90
5344;DHT22;2694;48.950;8.970;2022-07-21T00:48:37;21.50;99.90
5344;DHT22;2694;48.950;8.970;2022-07-21T00:53:31;21.60;99.90
5344;DHT22;2694;48.950;8.970;2022-07-21T00:55:59;21.80;99.90
5344;DHT22;2694;48.950;8.970;2022-07-21T00:58:26;21.70;99.90
5344;DHT22;2694;48.950;8.970;2022-07-21T01:00:53;21.50;99.90
5344;DHT22;2694;48.950;8.970;2022-07-21T01:03:20;21.30;99.90
5344;DHT22;2694;48.950;8.970;2022-07-21T01:05:48;21.20;99.90
5344;DHT22;2694;48.950;8.970;2022-07-21T01:08:15;21.20;99.90
5344;DHT22;2694;48.950;8.970;2022-07-21T01:10:42;21.30;99.90
5344;DHT22;2694;48.950;8.970;2022-07-21T01:13:09;21.50;99.90
5344;DHT22;2694;48.950;8.970;2022-07-21T01:15:36;21.60;99.90
5344;DHT22;2694;48.950;8.970;2022-07-21T01:18:03;21.70;99.90
5344;DHT22;2694;48.950;8.970;2022-07-21T01:20:34;21.70;99.90
5344;DHT22;2694;48.950;8.970;2022-07-21T01:23:03;21.80;99.90
5344;DHT22;2694;48.950;8.970;2022-07-21T01:27:57;21.70;99.90
5344;DHT22;2694;48.950;8.970;2022-07-21T01:30:24;21.70;99.90
5344;DHT22;2694;48.950;8.970;2022-07-21T01:32:51;21.80;99.90
5344;DHT22;2694;48.950;8.970;2022-07-21T01:35:19;21.80;99.90
5344;DHT22;2694;48.950;8.970;2022-07-21T01:37:46;21.80;99.90
5344;DHT22;2694;48.950;8.970;2022-07-21T01:40:16;21.70;99.90
5344;DHT22;2694;48.950;8.970;2022-07-21T01:45:28;21.50;99.90
5344;DHT22;2694;48.950;8.970;2022-07-21T01:47:55;21.50;99.90
5344;DHT22;2694;48.950;8.970;2022-07-21T01:50:22;21.60;99.90
5344;DHT22;2694;48.950;8.970;2022-07-21T01:52:53;21.70;99.90
5344;DHT22;2694;48.950;8.970;2022-07-21T01:55:22;21.90;99.90
5344;DHT22;2694;48.950;8.970;2022-07-21T02:00:16;21.90;99.90
5344;DHT22;2694;48.950;8.970;2022-07-21T02:02:43;21.90;99.90
5344;DHT22;2694;48.950;8.970;2022-07-21T02:05:10;21.70;99.90
5344;DHT22;2694;48.950;8.970;2022-07-21T02:07:37;21.40;99.90
5344;DHT22;2694;48.950;8.970;2022-07-21T02:10:04;21.00;99.90
5344;DHT22;2694;48.950;8.970;2022-07-21T02:12:32;20.60;99.90
5344;DHT22;2694;48.950;8.970;2022-07-21T02:14:59;20.60;99.90
5344;DHT22;2694;48.950;8.970;2022-07-21T02:17:26;20.50;99.90
5344;DHT22;2694;48.950;8.970;2022-07-21T02:19:53;20.60;99.90
5344;DHT22;2694;48.950;8.970;2022-07-21T02:22:20;20.40;99.90
5344;DHT22;2694;48.950;8.970;2022-07-21T02:24:46;20.50;99.90
5344;DHT22;2694;48.950;8.970;2022-07-21T02:27:13;20.50;99.90
5344;DHT22;2694;48.950;8.970;2022-07-21T02:29:41;20.60;99.90
5344;DHT22;2694;48.950;8.970;2022-07-21T02:32:08;20.60;99.90
5344;DHT22;2694;48.950;8.970;2022-07-21T02:34:35;20.70;99.90
5344;DHT22;2694;48.950;8.970;2022-07-21T02:37:01;20.80;99.90
5344;DHT22;2694;48.950;8.970;2022-07-21T02:39:28;20.80;99.90
5344;DHT22;2694;48.950;8.970;2022-07-21T02:41:55;20.80;99.90
5344;DHT22;2694;48.950;8.970;2022-07-21T02:44:22;20.90;99.90
5344;DHT22;2694;48.950;8.970;2022-07-21T02:46:50;20.80;99.90
5344;DHT22;2694;48.950;8.970;2022-07-21T02:49:17;20.90;99.90
5344;DHT22;2694;48.950;8.970;2022-07-21T02:51:43;21.00;99.90
5344;DHT22;2694;48.950;8.970;2022-07-21T02:54:10;21.10;99.90
5344;DHT22;2694;48.950;8.970;2022-07-21T02:56:37;21.00;99.90
5344;DHT22;2694;48.950;8.970;2022-07-21T03:01:32;21.40;99.90
5344;DHT22;2694;48.950;8.970;2022-07-21T03:04:00;21.50;99.90
5344;DHT22;2694;48.950;8.970;2022-07-21T03:06:27;21.60;99.90
5344;DHT22;2694;48.950;8.970;2022-07-21T03:08:54;21.80;99.90
5344;DHT22;2694;48.950;8.970;2022-07-21T03:16:15;21.70;99.90
5344;DHT22;2694;48.950;8.970;2022-07-21T03:18:42;21.70;99.90
5344;DHT22;2694;48.950;8.970;2022-07-21T03:21:10;21.60;99.90
5344;DHT22;2694;48.950;8.970;2022-07-21T03:23:37;21.60;99.90
5344;DHT22;2694;48.950;8.970;2022-07-21T03:26:04;21.60;99.90
5344;DHT22;2694;48.950;8.970;2022-07-21T03:28:31;21.60;99.90
5344;DHT22;2694;48.950;8.970;2022-07-21T03:30:57;21.60;99.90
5344;DHT22;2694;48.950;8.970;2022-07-21T03:33:24;21.60;99.90
5344;DHT22;2694;48.950;8.970;2022-07-21T03:35:51;21.60;99.90
5344;DHT22;2694;48.950;8.970;2022-07-21T03:38:19;21.60;99.90
5344;DHT22;2694;48.950;8.970;2022-07-21T03:40:46;21.50;99.90
5344;DHT22;2694;48.950;8.970;2022-07-21T03:43:12;21.50;99.90
5344;DHT22;2694;48.950;8.970;2022-07-21T03:45:39;21.40;99.90
5344;DHT22;2694;48.950;8.970;2022-07-21T03:48:07;21.40;99.90
5344;DHT22;2694;48.950;8.970;2022-07-21T03:50:35;21.30;99.90
5344;DHT22;2694;48.950;8.970;2022-07-21T03:53:02;21.30;99.90
5344;DHT22;2694;48.950;8.970;2022-07-21T03:55:31;21.40;99.90
5344;DHT22;2694;48.950;8.970;2022-07-21T03:57:59;21.40;99.90
5344;DHT22;2694;48.950;8.970;2022-07-21T04:00:28;21.40;99.90
5344;DHT22;2694;48.950;8.970;2022-07-21T04:02:56;21.40;99.90
5344;DHT22;2694;48.950;8.970;2022-07-21T04:05:24;21.50;99.90
5344;DHT22;2694;48.950;8.970;2022-07-21T04:07:52;21.50;99.90
5344;DHT22;2694;48.950;8.970;2022-07-21T04:10:23;21.40;99.90
5344;DHT22;2694;48.950;8.970;2022-07-21T04:12:52;21.30;99.90
5344;DHT22;2694;48.950;8.970;2022-07-21T04:15:19;21.30;99.90
5344;DHT22;2694;48.950;8.970;2022-07-21T04:20:14;21.40;99.90
5344;DHT22;2694;48.950;8.970;2022-07-21T04:22:41;21.50;99.90
5344;DHT22;2694;48.950;8.970;2022-07-21T04:27:36;21.70;99.90
5344;DHT22;2694;48.950;8.970;2022-07-21T04:30:07;21.70;99.90
5344;DHT22;2694;48.950;8.970;2022-07-21T04:32:34;21.80;99.90
5344;DHT22;2694;48.950;8.970;2022-07-21T04:35:00;21.80;99.90
5344;DHT22;2694;48.950;8.970;2022-07-21T04:37:27;21.90;99.90
5344;DHT22;2694;48.950;8.970;2022-07-21T04:39:54;21.90;99.90
5344;DHT22;2694;48.950;8.970;2022-07-21T04:42:21;22.00;99.90
5344;DHT22;2694;48.950;8.970;2022-07-21T04:44:48;22.20;99.90
5344;DHT22;2694;48.950;8.970;2022-07-21T04:47:16;22.20;99.90
5344;DHT22;2694;48.950;8.970;2022-07-21T04:49:43;22.10;99.90
5344;DHT22;2694;48.950;8.970;2022-07-21T04:52:09;22.10;99.90
5344;DHT22;2694;48.950;8.970;2022-07-21T04:57:03;22.00;99.90
5344;DHT22;2694;48.950;8.970;2022-07-21T04:59:31;22.00;99.90
5344;DHT22;2694;48.950;8.970;2022-07-21T05:01:59;21.90;99.90
5344;DHT22;2694;48.950;8.970;2022-07-21T05:06:54;22.10;99.90
5344;DHT22;2694;48.950;8.970;2022-07-21T05:14:17;22.20;99.90
5344;DHT22;2694;48.950;8.970;2022-07-21T05:16:44;22.40;99.90
5344;DHT22;2694;48.950;8.970;2022-07-21T05:19:11;22.40;99.90
5344;DHT22;2694;48.950;8.970;2022-07-21T05:26:34;22.30;99.90
5344;DHT22;2694;48.950;8.970;2022-07-21T05:29:01;22.40;99.90
5344;DHT22;2694;48.950;8.970;2022-07-21T05:31:28;22.40;99.90
5344;DHT22;2694;48.950;8.970;2022-07-21T05:33:55;22.40;99.90
5344;DHT22;2694;48.950;8.970;2022-07-21T05:36:21;22.50;99.90
5344;DHT22;2694;48.950;8.970;2022-07-21T05:38:50;22.60;99.90
5344;DHT22;2694;48.950;8.970;2022-07-21T05:41:16;22.50;99.90
5344;DHT22;2694;48.950;8.970;2022-07-21T05:43:43;22.30;99.90
5344;DHT22;2694;48.950;8.970;2022-07-21T05:46:10;22.30;99.90
5344;DHT22;2694;48.950;8.970;2022-07-21T05:48:37;22.30;99.90
5344;DHT22;2694;48.950;8.970;2022-07-21T05:51:04;22.40;99.90
5344;DHT22;2694;48.950;8.970;2022-07-21T05:55:59;22.70;99.90
5344;DHT22;2694;48.950;8.970;2022-07-21T06:03:39;22.20;99.90
5344;DHT22;2694;48.950;8.970;2022-07-21T06:06:07;22.20;99.90
5344;DHT22;2694;48.950;8.970;2022-07-21T06:08:34;22.20;99.90
5344;DHT22;2694;48.950;8.970;2022-07-21T06:13:29;22.00;99.90
5344;DHT22;2694;48.950;8.970;2022-07-21T06:15:56;21.90;99.90
5344;DHT22;2694;48.950;8.970;2022-07-21T06:18:22;21.80;99.90
5344;DHT22;2694;48.950;8.970;2022-07-21T06:20:49;21.80;99.90
5344;DHT22;2694;48.950;8.970;2022-07-21T06:23:16;21.90;99.90
5344;DHT22;2694;48.950;8.970;2022-07-21T06:25:43;22.10;99.90
5344;DHT22;2694;48.950;8.970;2022-07-21T06:30:38;22.30;99.90
5344;DHT22;2694;48.950;8.970;2022-07-21T06:33:05;22.60;99.90
5344;DHT22;2694;48.950;8.970;2022-07-21T06:35:32;23.00;99.90
5344;DHT22;2694;48.950;8.970;2022-07-21T06:37:59;23.20;99.90
5344;DHT22;2694;48.950;8.970;2022-07-21T06:40:26;23.50;99.90
5344;DHT22;2694;48.950;8.970;2022-07-21T06:42:52;23.70;99.90
5344;DHT22;2694;48.950;8.970;2022-07-21T06:47:48;24.00;99.90
5344;DHT22;2694;48.950;8.970;2022-07-21T06:50:15;24.20;99.90
5344;DHT22;2694;48.950;8.970;2022-07-21T06:52:42;24.60;99.90
5344;DHT22;2694;48.950;8.970;2022-07-21T06:55:09;24.80;99.90
5344;DHT22;2694;48.950;8.970;2022-07-21T06:57:36;24.70;99.90
5344;DHT22;2694;48.950;8.970;2022-07-21T07:00:04;25.00;99.90
5344;DHT22;2694;48.950;8.970;2022-07-21T07:05:00;24.60;99.90
5344;DHT22;2694;48.950;8.970;2022-07-21T07:07:27;24.50;99.90
5344;DHT22;2694;48.950;8.970;2022-07-21T07:09:54;24.60;99.90
5344;DHT22;2694;48.950;8.970;2022-07-21T07:12:21;24.80;99.90
5344;DHT22;2694;48.950;8.970;2022-07-21T07:14:48;24.80;99.90
5344;DHT22;2694;48.950;8.970;2022-07-21T07:17:15;24.60;99.90
5344;DHT22;2694;48.950;8.970;2022-07-21T07:19:43;24.60;99.90
5344;DHT22;2694;48.950;8.970;2022-07-21T07:22:10;24.60;99.90
5344;DHT22;2694;48.950;8.970;2022-07-21T07:24:37;24.80;99.90
5344;DHT22;2694;48.950;8.970;2022-07-21T07:27:04;24.90;99.90
5344;DHT22;2694;48.950;8.970;2022-07-21T07:29:31;24.80;99.90
5344;DHT22;2694;48.950;8.970;2022-07-21T07:31:59;24.80;99.90
5344;DHT22;2694;48.950;8.970;2022-07-21T07:34:26;25.30;99.90
5344;DHT22;2694;48.950;8.970;2022-07-21T07:36:54;25.60;99.90
5344;DHT22;2694;48.950;8.970;2022-07-21T07:39:21;25.60;99.90
5344;DHT22;2694;48.950;8.970;2022-07-21T07:41:47;25.70;99.90
5344;DHT22;2694;48.950;8.970;2022-07-21T07:44:14;25.60;99.90
5344;DHT22;2694;48.950;8.970;2022-07-21T07:46:41;25.40;99.90
5344;DHT22;2694;48.950;8.970;2022-07-21T07:49:08;25.30;99.90
5344;DHT22;2694;48.950;8.970;2022-07-21T07:51:35;25.10;99.90
5344;DHT22;2694;48.950;8.970;2022-07-21T07:54:03;24.60;99.90
5344;DHT22;2694;48.950;8.970;2022-07-21T07:56:30;24.20;99.90
5344;DHT22;2694;48.950;8.970;2022-07-21T07:58:57;24.20;99.90
5344;DHT22;2694;48.950;8.970;2022-07-21T08:01:24;24.30;99.90
5344;DHT22;2694;48.950;8.970;2022-07-21T08:03:51;24.30;99.90
5344;DHT22;2694;48.950;8.970;2022-07-21T08:06:17;24.30;99.90
5344;DHT22;2694;48.950;8.970;2022-07-21T08:08:44;24.30;99.90
5344;DHT22;2694;48.950;8.970;2022-07-21T08:11:12;24.50;99.90
5344;DHT22;2694;48.950;8.970;2022-07-21T08:13:41;24.40;99.90
5344;DHT22;2694;48.950;8.970;2022-07-21T08:16:08;24.60;99.90
5344;DHT22;2694;48.950;8.970;2022-07-21T08:18:35;25.00;99.90
5344;DHT22;2694;48.950;8.970;2022-07-21T08:21:01;25.60;99.90
5344;DHT22;2694;48.950;8.970;2022-07-21T08:23:28;25.60;99.90
5344;DHT22;2694;48.950;8.970;2022-07-21T08:28:23;25.60;99.90
5344;DHT22;2694;48.950;8.970;2022-07-21T08:33:17;26.70;99.90
5344;DHT22;2694;48.950;8.970;2022-07-21T08:35:44;27.40;99.90
5344;DHT22;2694;48.950;8.970;2022-07-21T08:38:11;27.80;99.90
5344;DHT22;2694;48.950;8.970;2022-07-21T08:40:40;28.20;99.00
5344;DHT22;2694;48.950;8.970;2022-07-21T08:43:08;28.30;98.90
5344;DHT22;2694;48.950;8.970;2022-07-21T08:45:36;28.70;98.50
5344;DHT22;2694;48.950;8.970;2022-07-21T08:48:03;28.80;98.40
5344;DHT22;2694;48.950;8.970;2022-07-21T08:50:32;29.00;97.70
5344;DHT22;2694;48.950;8.970;2022-07-21T08:52:59;29.30;97.20
5344;DHT22;2694;48.950;8.970;2022-07-21T08:55:28;29.70;96.70
5344;DHT22;2694;48.950;8.970;2022-07-21T08:57:56;30.00;95.80
5344;DHT22;2694;48.950;8.970;2022-07-21T09:00:22;30.50;94.70
5344;DHT22;2694;48.950;8.970;2022-07-21T09:03:08;30.40;93.90
5344;DHT22;2694;48.950;8.970;2022-07-21T09:08:02;29.40;94.40
5344;DHT22;2694;48.950;8.970;2022-07-21T09:10:31;28.70;94.60
5344;DHT22;2694;48.950;8.970;2022-07-21T09:13:00;28.20;96.90
5344;DHT22;2694;48.950;8.970;2022-07-21T09:15:29;28.90;96.40
5344;DHT22;2694;48.950;8.970;2022-07-21T09:18:09;29.80;95.00
5344;DHT22;2694;48.950;8.970;2022-07-21T09:23:07;30.20;93.90
5344;DHT22;2694;48.950;8.970;2022-07-21T09:25:39;30.80;92.70
5344;DHT22;2694;48.950;8.970;2022-07-21T09:28:15;30.40;92.40
5344;DHT22;2694;48.950;8.970;2022-07-21T09:30:55;29.50;92.70
5344;DHT22;2694;48.950;8.970;2022-07-21T09:33:26;28.60;93.90
5344;DHT22;2694;48.950;8.970;2022-07-21T09:35:58;28.10;94.90
5344;DHT22;2694;48.950;8.970;2022-07-21T09:38:27;28.50;95.20
5344;DHT22;2694;48.950;8.970;2022-07-21T09:40:54;29.00;93.90
5344;DHT22;2694;48.950;8.970;2022-07-21T09:48:35;29.40;90.60
5344;DHT22;2694;48.950;8.970;2022-07-21T09:51:25;29.90;90.80
5344;DHT22;2694;48.950;8.970;2022-07-21T09:53:56;29.80;90.00
5344;DHT22;2694;48.950;8.970;2022-07-21T09:56:24;29.90;86.70
5344;DHT22;2694;48.950;8.970;2022-07-21T09:58:53;29.80;88.50
5344;DHT22;2694;48.950;8.970;2022-07-21T10:01:20;30.30;89.70
5344;DHT22;2694;48.950;8.970;2022-07-21T10:03:50;30.90;87.20
5344;DHT22;2694;48.950;8.970;2022-07-21T10:06:19;30.50;86.70
5344;DHT22;2694;48.950;8.970;2022-07-21T10:08:46;30.00;86.60
5344;DHT22;2694;48.950;8.970;2022-07-21T10:11:13;30.00;89.50
5344;DHT22;2694;48.950;8.970;2022-07-21T10:13:40;30.70;87.80
5344;DHT22;2694;48.950;8.970;2022-07-21T10:16:09;30.80;86.40
5344;DHT22;2694;48.950;8.970;2022-07-21T10:18:42;30.50;87.40
5344;DHT22;2694;48.950;8.970;2022-07-21T10:21:26;30.70;88.40
5344;DHT22;2694;48.950;8.970;2022-07-21T10:23:55;30.90;89.30
5344;DHT22;2694;48.950;8.970;2022-07-21T10:26:22;31.30;87.80
5344;DHT22;2694;48.950;8.970;2022-07-21T10:28:49;31.20;86.70
5344;DHT22;2694;48.950;8.970;2022-07-21T10:31:18;31.40;86.90
5344;DHT22;2694;48.950;8.970;2022-07-21T10:33:59;31.20;85.80
5344;DHT22;2694;48.950;8.970;2022-07-21T10:36:44;31.50;85.80
5344;DHT22;2694;48.950;8.970;2022-07-21T10:39:23;32.20;84.70
5344;DHT22;2694;48.950;8.970;2022-07-21T10:41:52;32.20;82.50
5344;DHT22;2694;48.950;8.970;2022-07-21T10:44:53;31.70;82.00
5344;DHT22;2694;48.950;8.970;2022-07-21T10:47:21;31.80;82.60
5344;DHT22;2694;48.950;8.970;2022-07-21T10:52:57;32.10;82.10
5344;DHT22;2694;48.950;8.970;2022-07-21T10:55:25;31.90;82.20
5344;DHT22;2694;48.950;8.970;2022-07-21T10:58:17;31.90;82.20
5344;DHT22;2694;48.950;8.970;2022-07-21T11:00:49;32.20;81.60
5344;DHT22;2694;48.950;8.970;2022-07-21T11:03:22;32.40;80.80
5344;DHT22;2694;48.950;8.970;2022-07-21T11:06:13;32.40;79.30
5344;DHT22;2694;48.950;8.970;2022-07-21T11:08:43;32.30;81.00
5344;DHT22;2694;48.950;8.970;2022-07-21T11:11:12;32.40;81.40
5344;DHT22;2694;48.950;8.970;2022-07-21T11:13:59;32.40;78.80
5344;DHT22;2694;48.950;8.970;2022-07-21T11:16:57;32.20;80.30
5344;DHT22;2694;48.950;8.970;2022-07-21T11:21:55;32.40;79.40
5344;DHT22;2694;48.950;8.970;2022-07-21T11:26:54;31.20;82.70
5344;DHT22;2694;48.950;8.970;2022-07-21T11:29:21;31.70;83.10
5344;DHT22;2694;48.950;8.970;2022-07-21T11:31:48;31.80;80.00
5344;DHT22;2694;48.950;8.970;2022-07-21T11:34:15;31.90;80.40
5344;DHT22;2694;48.950;8.970;2022-07-21T11:36:42;31.90;80.50
5344;DHT22;2694;48.950;8.970;2022-07-21T11:39:11;31.70;80.30
5344;DHT22;2694;48.950;8.970;2022-07-21T11:41:40;31.80;81.30
5344;DHT22;2694;48.950;8.970;2022-07-21T11:44:08;31.90;81.40
5344;DHT22;2694;48.950;8.970;2022-07-21T11:46:46;31.90;79.40
5344;DHT22;2694;48.950;8.970;2022-07-21T11:49:13;31.60;80.30
5344;DHT22;2694;48.950;8.970;2022-07-21T11:51:46;30.70;81.90
5344;DHT22;2694;48.950;8.970;2022-07-21T11:54:28;30.40;83.30
5344;DHT22;2694;48.950;8.970;2022-07-21T11:59:26;30.90;81.20
5344;DHT22;2694;48.950;8.970;2022-07-21T12:04:36;31.80;80.20
5344;DHT22;2694;48.950;8.970;2022-07-21T12:07:05;32.20;81.30
5344;DHT22;2694;48.950;8.970;2022-07-21T12:09:33;32.40;80.30
5344;DHT22;2694;48.950;8.970;2022-07-21T12:12:02;32.40;79.80
5344;DHT22;2694;48.950;8.970;2022-07-21T12:14:46;32.30;79.70
5344;DHT22;2694;48.950;8.970;2022-07-21T12:17:31;32.30;79.50
5344;DHT22;2694;48.950;8.970;2022-07-21T12:19:58;32.00;79.20
5344;DHT22;2694;48.950;8.970;2022-07-21T12:22:33;32.00;77.90
5344;DHT22;2694;48.950;8.970;2022-07-21T12:27:28;32.10;76.60
5344;DHT22;2694;48.950;8.970;2022-07-21T12:32:44;31.90;75.80
5344;DHT22;2694;48.950;8.970;2022-07-21T12:35:23;31.80;74.90
5344;DHT22;2694;48.950;8.970;2022-07-21T12:37:52;32.00;75.50
5344;DHT22;2694;48.950;8.970;2022-07-21T12:40:19;32.00;73.20
5344;DHT22;2694;48.950;8.970;2022-07-21T12:42:48;31.40;72.90
5344;DHT22;2694;48.950;8.970;2022-07-21T12:45:16;31.40;72.90
5344;DHT22;2694;48.950;8.970;2022-07-21T12:50:14;30.90;71.70
5344;DHT22;2694;48.950;8.970;2022-07-21T12:52:41;31.20;73.50
5344;DHT22;2694;48.950;8.970;2022-07-21T12:55:08;31.40;72.80
5344;DHT22;2694;48.950;8.970;2022-07-21T12:57:35;31.40;72.70
5344;DHT22;2694;48.950;8.970;2022-07-21T13:00:05;32.00;71.90
5344;DHT22;2694;48.950;8.970;2022-07-21T13:02:45;32.10;71.60
5344;DHT22;2694;48.950;8.970;2022-07-21T13:05:12;31.90;71.40
5344;DHT22;2694;48.950;8.970;2022-07-21T13:07:39;31.70;70.90
5344;DHT22;2694;48.950;8.970;2022-07-21T13:10:06;31.90;72.60
5344;DHT22;2694;48.950;8.970;2022-07-21T13:12:32;31.90;71.60
5344;DHT22;2694;48.950;8.970;2022-07-21T13:14:59;31.60;71.40
5344;DHT22;2694;48.950;8.970;2022-07-21T13:17:27;31.40;72.60
5344;DHT22;2694;48.950;8.970;2022-07-21T13:19:54;31.50;73.20
5344;DHT22;2694;48.950;8.970;2022-07-21T13:22:21;31.40;72.60
5344;DHT22;2694;48.950;8.970;2022-07-21T13:24:48;31.20;71.50
5344;DHT22;2694;48.950;8.970;2022-07-21T13:27:15;31.30;72.20
5344;DHT22;2694;48.950;8.970;2022-07-21T13:29:42;31.40;71.70
5344;DHT22;2694;48.950;8.970;2022-07-21T13:32:08;31.30;72.30
5344;DHT22;2694;48.950;8.970;2022-07-21T13:37:04;31.20;73.00
5344;DHT22;2694;48.950;8.970;2022-07-21T13:39:31;31.40;74.80
5344;DHT22;2694;48.950;8.970;2022-07-21T13:41:58;31.10;75.30
5344;DHT22;2694;48.950;8.970;2022-07-21T13:44:25;31.00;75.30
5344;DHT22;2694;48.950;8.970;2022-07-21T13:49:19;30.40;72.30
5344;DHT22;2694;48.950;8.970;2022-07-21T13:51:47;30.10;73.80
5344;DHT22;2694;48.950;8.970;2022-07-21T13:54:13;30.10;74.40
5344;DHT22;2694;48.950;8.970;2022-07-21T13:56:40;30.20;74.60
5344;DHT22;2694;48.950;8.970;2022-07-21T13:59:07;30.50;75.90
5344;DHT22;2694;48.950;8.970;2022-07-21T14:01:34;30.50;75.60
5344;DHT22;2694;48.950;8.970;2022-07-21T14:04:01;29.90;74.00
5344;DHT22;2694;48.950;8.970;2022-07-21T14:06:28;29.50;75.00
5344;DHT22;2694;48.950;8.970;2022-07-21T14:11:23;29.80;74.80
5344;DHT22;2694;48.950;8.970;2022-07-21T14:13:53;30.10;74.50
5344;DHT22;2694;48.950;8.970;2022-07-21T14:16:20;30.30;74.10
5344;DHT22;2694;48.950;8.970;2022-07-21T14:18:47;29.90;74.00
5344;DHT22;2694;48.950;8.970;2022-07-21T14:26:10;29.50;77.10
5344;DHT22;2694;48.950;8.970;2022-07-21T14:28:36;29.80;76.70
5344;DHT22;2694;48.950;8.970;2022-07-21T14:31:03;29.70;75.40
5344;DHT22;2694;48.950;8.970;2022-07-21T14:33:30;29.70;75.60
5344;DHT22;2694;48.950;8.970;2022-07-21T14:35:57;29.70;75.00
5344;DHT22;2694;48.950;8.970;2022-07-21T14:38:24;29.50;73.60
5344;DHT22;2694;48.950;8.970;2022-07-21T14:40:51;29.50;74.30
5344;DHT22;2694;48.950;8.970;2022-07-21T14:45:46;29.70;75.20
5344;DHT22;2694;48.950;8.970;2022-07-21T14:50:40;30.00;74.90
5344;DHT22;2694;48.950;8.970;2022-07-21T14:53:07;30.40;74.40
5344;DHT22;2694;48.950;8.970;2022-07-21T14:55:35;30.80;73.80
5344;DHT22;2694;48.950;8.970;2022-07-21T14:58:02;30.90;74.40
5344;DHT22;2694;48.950;8.970;2022-07-21T15:00:30;30.70;72.60
5344;DHT22;2694;48.950;8.970;2022-07-21T15:02:58;30.70;72.50
5344;DHT22;2694;48.950;8.970;2022-07-21T15:05:25;30.70;72.70
5344;DHT22;2694;48.950;8.970;2022-07-21T15:07:52;30.70;73.00
5344;DHT22;2694;48.950;8.970;2022-07-21T15:10:19;30.60;73.00
5344;DHT22;2694;48.950;8.970;2022-07-21T15:12:46;30.50;72.90
5344;DHT22;2694;48.950;8.970;2022-07-21T15:15:13;30.40;72.90
5344;DHT22;2694;48.950;8.970;2022-07-21T15:20:10;30.20;72.80
5344;DHT22;2694;48.950;8.970;2022-07-21T15:22:37;30.30;73.90
5344;DHT22;2694;48.950;8.970;2022-07-21T15:25:05;30.50;74.10
5344;DHT22;2694;48.950;8.970;2022-07-21T15:27:35;30.50;73.70
5344;DHT22;2694;48.950;8.970;2022-07-21T15:30:04;30.50;72.80
5344;DHT22;2694;48.950;8.970;2022-07-21T15:32:30;30.30;73.00
5344;DHT22;2694;48.950;8.970;2022-07-21T15:34:59;30.20;73.60
5344;DHT22;2694;48.950;8.970;2022-07-21T15:37:25;30.20;74.10
5344;DHT22;2694;48.950;8.970;2022-07-21T15:39:52;30.20;74.60
5344;DHT22;2694;48.950;8.970;2022-07-21T15:42:19;30.30;73.60
5344;DHT22;2694;48.950;8.970;2022-07-21T15:44:46;30.40;73.70
5344;DHT22;2694;48.950;8.970;2022-07-21T15:47:13;30.40;74.80
5344;DHT22;2694;48.950;8.970;2022-07-21T15:49:39;30.30;74.20
5344;DHT22;2694;48.950;8.970;2022-07-21T15:52:08;30.20;73.70
5344;DHT22;2694;48.950;8.970;2022-07-21T15:54:36;30.20;74.00
5344;DHT22;2694;48.950;8.970;2022-07-21T15:57:03;30.10;74.00
5344;DHT22;2694;48.950;8.970;2022-07-21T16:02:00;30.20;73.20
5344;DHT22;2694;48.950;8.970;2022-07-21T16:04:27;30.20;73.70
5344;DHT22;2694;48.950;8.970;2022-07-21T16:06:54;30.10;73.00
5344;DHT22;2694;48.950;8.970;2022-07-21T16:09:22;30.00;73.20
5344;DHT22;2694;48.950;8.970;2022-07-21T16:14:16;29.90;73.80
5344;DHT22;2694;48.950;8.970;2022-07-21T16:16:43;29.80;73.80
5344;DHT22;2694;48.950;8.970;2022-07-21T16:19:10;29.90;72.60
5344;DHT22;2694;48.950;8.970;2022-07-21T16:24:04;29.70;74.00
5344;DHT22;2694;48.950;8.970;2022-07-21T16:26:32;29.50;73.10
5344;DHT22;2694;48.950;8.970;2022-07-21T16:28:59;29.40;73.90
5344;DHT22;2694;48.950;8.970;2022-07-21T16:31:26;29.30;74.00
5344;DHT22;2694;48.950;8.970;2022-07-21T16:38:47;29.10;75.30
5344;DHT22;2694;48.950;8.970;2022-07-21T16:41:14;29.00;75.60
5344;DHT22;2694;48.950;8.970;2022-07-21T16:43:42;29.00;75.80
5344;DHT22;2694;48.950;8.970;2022-07-21T16:53:31;28.50;76.90
5344;DHT22;2694;48.950;8.970;2022-07-21T16:55:59;28.40;76.60
5344;DHT22;2694;48.950;8.970;2022-07-21T16:58:26;28.30;76.90
5344;DHT22;2694;48.950;8.970;2022-07-21T17:00:54;28.30;77.30
5344;DHT22;2694;48.950;8.970;2022-07-21T17:05:48;28.30;77.50
5344;DHT22;2694;48.950;8.970;2022-07-21T17:08:15;28.20;78.50
5344;DHT22;2694;48.950;8.970;2022-07-21T17:13:08;28.20;79.30
5344;DHT22;2694;48.950;8.970;2022-07-21T17:18:05;28.00;79.80
5344;DHT22;2694;48.950;8.970;2022-07-21T17:20:32;28.00;80.00
5344;DHT22;2694;48.950;8.970;2022-07-21T17:22:59;27.90;80.10
5344;DHT22;2694;48.950;8.970;2022-07-21T17:25:25;27.90;80.70
5344;DHT22;2694;48.950;8.970;2022-07-21T17:30:20;27.90;80.50
5344;DHT22;2694;48.950;8.970;2022-07-21T17:32:47;27.90;80.70
5344;DHT22;2694;48.950;8.970;2022-07-21T17:35:15;27.80;81.10
5344;DHT22;2694;48.950;8.970;2022-07-21T17:37:42;27.70;80.90
5344;DHT22;2694;48.950;8.970;2022-07-21T17:40:11;27.70;81.50
5344;DHT22;2694;48.950;8.970;2022-07-21T17:45:05;27.50;81.70
5344;DHT22;2694;48.950;8.970;2022-07-21T17:47:33;27.50;81.80
5344;DHT22;2694;48.950;8.970;2022-07-21T17:50:00;27.40;82.10
5344;DHT22;2694;48.950;8.970;2022-07-21T17:52:28;27.40;82.60
5344;DHT22;2694;48.950;8.970;2022-07-21T18:00:08;27.30;84.10
5344;DHT22;2694;48.950;8.970;2022-07-21T18:02:36;27.20;84.30
5344;DHT22;2694;48.950;8.970;2022-07-21T18:05:03;27.20;84.40
5344;DHT22;2694;48.950;8.970;2022-07-21T18:07:31;27.10;84.90
5344;DHT22;2694;48.950;8.970;2022-07-21T18:09:58;27.10;85.20
5344;DHT22;2694;48.950;8.970;2022-07-21T18:12:25;27.00;85.90
5344;DHT22;2694;48.950;8.970;2022-07-21T18:22:15;26.70;87.10
5344;DHT22;2694;48.950;8.970;2022-07-21T18:24:44;26.60;87.00
5344;DHT22;2694;48.950;8.970;2022-07-21T18:27:11;26.60;87.60
5344;DHT22;2694;48.950;8.970;2022-07-21T18:29:38;26.60;87.70
5344;DHT22;2694;48.950;8.970;2022-07-21T18:36:59;26.50;88.80
5344;DHT22;2694;48.950;8.970;2022-07-21T18:39:26;26.40;89.40
5344;DHT22;2694;48.950;8.970;2022-07-21T18:49:16;26.20;90.10
5344;DHT22;2694;48.950;8.970;2022-07-21T18:51:46;26.10;90.50
5344;DHT22;2694;48.950;8.970;2022-07-21T18:54:12;26.00;91.00
5344;DHT22;2694;48.950;8.970;2022-07-21T18:56:39;26.00;94.10
5344;DHT22;2694;48.950;8.970;2022-07-21T19:01:34;25.90;95.40
5344;DHT22;2694;48.950;8.970;2022-07-21T19:04:01;25.90;93.40
5344;DHT22;2694;48.950;8.970;2022-07-21T19:08:55;25.80;94.20
5344;DHT22;2694;48.950;8.970;2022-07-21T19:16:18;25.60;94.50